sensor_id;sensor_type;location;lat;lon;timestamp;temperature;humidity
63094;DHT22;49183;51.380;0.098;2024-02-26T00:01:40;4.20;82.40
63094;DHT22;49183;51.380;0.098;2024-02-26T00:04:08;4.30;82.50
63094;DHT22;49183;51.380;0.098;2024-02-26T00:06:37;4.30;82.60
63094;DHT22;49183;51.380;0.098;2024-02-26T00:09:07;4.30;82.60
63094;DHT22;49183;51.380;0.098;2024-02-26T00:11:35;4.30;82.60
63094;DHT22;49183;51.380;0.098;2024-02-26T00:14:04;4.30;82.60
63094;DHT22;49183;51.380;0.098;2024-02-26T00:16:32;4.30;82.50
63094;DHT22;49183;51.380;0.098;2024-02-26T00:18:59;4.30;82.50
63094;DHT22;49183;51.380;0.098;2024-02-26T00:21:28;4.30;82.60
63094;DHT22;49183;51.380;0.098;2024-02-26T00:23:56;4.30;82.50
63094;DHT22;49183;51.380;0.098;2024-02-26T00:26:24;4.40;82.60
63094;DHT22;49183;51.380;0.098;2024-02-26T00:28:52;4.40;82.50
63094;DHT22;49183;51.380;0.098;2024-02-26T00:31:20;4.40;82.60
63094;DHT22;49183;51.380;0.098;2024-02-26T00:33:48;4.50;82.50
63094;DHT22;49183;51.380;0.098;2024-02-26T00:36:15;4.50;82.50
63094;DHT22;49183;51.380;0.098;2024-02-26T00:38:43;4.50;82.40
63094;DHT22;49183;51.380;0.098;2024-02-26T00:41:13;4.50;82.10
63094;DHT22;49183;51.380;0.098;2024-02-26T00:43:41;4.60;82.00
63094;DHT22;49183;51.380;0.098;2024-02-26T00:46:09;4.60;81.90
63094;DHT22;49183;51.380;0.098;2024-02-26T00:48:37;4.60;81.50
63094;DHT22;49183;51.380;0.098;2024-02-26T00:51:05;4.60;81.40
63094;DHT22;49183;51.380;0.098;2024-02-26T00:53:33;4.70;81.40
63094;DHT22;49183;51.380;0.098;2024-02-26T00:56:01;4.70;81.30
63094;DHT22;49183;51.380;0.098;2024-02-26T00:58:29;4.70;81.10
63094;DHT22;49183;51.380;0.098;2024-02-26T01:00:57;4.70;81.00
63094;DHT22;49183;51.380;0.098;2024-02-26T01:03:25;4.60;81.10
63094;DHT22;49183;51.380;0.098;2024-02-26T01:05:53;4.60;81.10
63094;DHT22;49183;51.380;0.098;2024-02-26T01:08:25;4.60;81.20
63094;DHT22;49183;51.380;0.098;2024-02-26T01:10:52;4.60;81.20
63094;DHT22;49183;51.380;0.098;2024-02-26T01:13:20;4.60;81.30
63094;DHT22;49183;51.380;0.098;2024-02-26T01:15:48;4.60;81.30
63094;DHT22;49183;51.380;0.098;2024-02-26T01:18:15;4.50;81.30
63094;DHT22;49183;51.380;0.098;2024-02-26T01:20:43;4.40;81.30
63094;DHT22;49183;51.380;0.098;2024-02-26T01:23:12;4.30;81.40
63094;DHT22;49183;51.380;0.098;2024-02-26T01:25:40;4.30;81.60
63094;DHT22;49183;51.380;0.098;2024-02-26T01:28:07;4.30;81.80
63094;DHT22;49183;51.380;0.098;2024-02-26T01:30:35;4.20;82.10
63094;DHT22;49183;51.380;0.098;2024-02-26T01:33:03;4.10;82.30
63094;DHT22;49183;51.380;0.098;2024-02-26T01:35:31;4.20;82.50
63094;DHT22;49183;51.380;0.098;2024-02-26T01:37:59;4.10;82.50
63094;DHT22;49183;51.380;0.098;2024-02-26T01:40:27;4.10;82.70
63094;DHT22;49183;51.380;0.098;2024-02-26T01:42:56;4.10;82.80
63094;DHT22;49183;51.380;0.098;2024-02-26T02:20:18;4.10;82.30
63094;DHT22;49183;51.380;0.098;2024-02-26T02:22:47;4.00;82.40
63094;DHT22;49183;51.380;0.098;2024-02-26T02:25:15;3.90;82.50
63094;DHT22;49183;51.380;0.098;2024-02-26T02:27:43;3.80;82.70
63094;DHT22;49183;51.380;0.098;2024-02-26T02:30:11;3.90;82.70
63094;DHT22;49183;51.380;0.098;2024-02-26T02:32:40;3.80;82.80
63094;DHT22;49183;51.380;0.098;2024-02-26T02:35:10;3.80;83.00
63094;DHT22;49183;51.380;0.098;2024-02-26T02:37:38;3.80;83.10
63094;DHT22;49183;51.380;0.098;2024-02-26T02:40:06;3.80;83.20
63094;DHT22;49183;51.380;0.098;2024-02-26T02:42:34;3.70;83.30
63094;DHT22;49183;51.380;0.098;2024-02-26T02:45:02;3.60;83.40
63094;DHT22;49183;51.380;0.098;2024-02-26T02:47:30;3.60;83.50
63094;DHT22;49183;51.380;0.098;2024-02-26T02:49:58;3.60;83.60
63094;DHT22;49183;51.380;0.098;2024-02-26T02:52:25;3.60;83.60
63094;DHT22;49183;51.380;0.098;2024-02-26T02:54:53;3.60;83.50
63094;DHT22;49183;51.380;0.098;2024-02-26T02:57:21;3.60;83.50
63094;DHT22;49183;51.380;0.098;2024-02-26T02:59:49;3.60;83.60
63094;DHT22;49183;51.380;0.098;2024-02-26T03:02:16;3.60;83.60
63094;DHT22;49183;51.380;0.098;2024-02-26T03:04:45;3.50;83.60
63094;DHT22;49183;51.380;0.098;2024-02-26T03:07:13;3.40;83.70
63094;DHT22;49183;51.380;0.098;2024-02-26T03:09:42;3.40;83.80
63094;DHT22;49183;51.380;0.098;2024-02-26T03:12:09;3.40;83.90
63094;DHT22;49183;51.380;0.098;2024-02-26T03:14:37;3.40;83.80
63094;DHT22;49183;51.380;0.098;2024-02-26T03:17:06;3.50;83.70
63094;DHT22;49183;51.380;0.098;2024-02-26T03:19:34;3.50;83.50
63094;DHT22;49183;51.380;0.098;2024-02-26T03:22:02;3.50;83.40
63094;DHT22;49183;51.380;0.098;2024-02-26T03:24:30;3.40;83.30
63094;DHT22;49183;51.380;0.098;2024-02-26T03:26:58;3.30;83.70
63094;DHT22;49183;51.380;0.098;2024-02-26T03:29:27;3.30;83.80
63094;DHT22;49183;51.380;0.098;2024-02-26T03:31:54;3.20;84.00
63094;DHT22;49183;51.380;0.098;2024-02-26T03:34:22;3.30;84.10
63094;DHT22;49183;51.380;0.098;2024-02-26T03:36:50;3.20;84.20
63094;DHT22;49183;51.380;0.098;2024-02-26T03:39:18;3.20;84.20
63094;DHT22;49183;51.380;0.098;2024-02-26T03:41:46;3.20;84.40
63094;DHT22;49183;51.380;0.098;2024-02-26T03:44:14;3.10;84.30
63094;DHT22;49183;51.380;0.098;2024-02-26T03:46:42;3.10;84.40
63094;DHT22;49183;51.380;0.098;2024-02-26T03:49:13;3.10;84.50
63094;DHT22;49183;51.380;0.098;2024-02-26T03:51:41;3.20;84.60
63094;DHT22;49183;51.380;0.098;2024-02-26T03:54:09;3.10;84.40
63094;DHT22;49183;51.380;0.098;2024-02-26T03:56:37;3.00;84.40
63094;DHT22;49183;51.380;0.098;2024-02-26T03:59:05;2.90;84.60
63094;DHT22;49183;51.380;0.098;2024-02-26T04:01:32;2.80;84.70
63094;DHT22;49183;51.380;0.098;2024-02-26T04:04:00;2.60;84.90
63094;DHT22;49183;51.380;0.098;2024-02-26T04:06:27;2.50;85.30
63094;DHT22;49183;51.380;0.098;2024-02-26T04:08:55;2.30;85.50
63094;DHT22;49183;51.380;0.098;2024-02-26T04:11:23;2.20;85.70
63094;DHT22;49183;51.380;0.098;2024-02-26T04:13:51;2.10;85.90
63094;DHT22;49183;51.380;0.098;2024-02-26T04:16:19;2.00;86.10
63094;DHT22;49183;51.380;0.098;2024-02-26T04:18:47;1.80;86.30
63094;DHT22;49183;51.380;0.098;2024-02-26T04:21:15;1.80;86.60
63094;DHT22;49183;51.380;0.098;2024-02-26T04:23:43;1.70;86.80
63094;DHT22;49183;51.380;0.098;2024-02-26T04:26:11;1.70;86.90
63094;DHT22;49183;51.380;0.098;2024-02-26T04:28:39;1.70;87.20
63094;DHT22;49183;51.380;0.098;2024-02-26T04:31:07;1.60;87.30
63094;DHT22;49183;51.380;0.098;2024-02-26T04:33:34;1.60;87.50
63094;DHT22;49183;51.380;0.098;2024-02-26T04:36:02;1.70;87.60
63094;DHT22;49183;51.380;0.098;2024-02-26T04:38:30;1.60;87.60
63094;DHT22;49183;51.380;0.098;2024-02-26T04:40:58;1.60;87.70
63094;DHT22;49183;51.380;0.098;2024-02-26T04:43:26;1.60;87.70
63094;DHT22;49183;51.380;0.098;2024-02-26T04:45:54;1.60;87.80
63094;DHT22;49183;51.380;0.098;2024-02-26T04:48:26;1.50;87.90
63094;DHT22;49183;51.380;0.098;2024-02-26T04:50:54;1.60;88.10
63094;DHT22;49183;51.380;0.098;2024-02-26T04:53:21;1.50;88.10
63094;DHT22;49183;51.380;0.098;2024-02-26T04:55:49;1.50;88.20
63094;DHT22;49183;51.380;0.098;2024-02-26T04:58:18;1.50;88.30
63094;DHT22;49183;51.380;0.098;2024-02-26T05:00:46;1.40;88.30
63094;DHT22;49183;51.380;0.098;2024-02-26T05:03:13;1.50;88.70
63094;DHT22;49183;51.380;0.098;2024-02-26T05:05:43;1.50;88.70
63094;DHT22;49183;51.380;0.098;2024-02-26T05:08:12;1.50;88.80
63094;DHT22;49183;51.380;0.098;2024-02-26T05:10:39;1.50;89.00
63094;DHT22;49183;51.380;0.098;2024-02-26T05:13:08;1.50;89.00
63094;DHT22;49183;51.380;0.098;2024-02-26T05:15:36;1.50;89.10
63094;DHT22;49183;51.380;0.098;2024-02-26T05:18:04;1.50;89.10
63094;DHT22;49183;51.380;0.098;2024-02-26T05:20:32;1.40;89.00
63094;DHT22;49183;51.380;0.098;2024-02-26T05:23:02;1.40;89.10
63094;DHT22;49183;51.380;0.098;2024-02-26T05:25:31;1.40;89.20
63094;DHT22;49183;51.380;0.098;2024-02-26T05:28:00;1.40;89.40
63094;DHT22;49183;51.380;0.098;2024-02-26T05:30:27;1.30;89.40
63094;DHT22;49183;51.380;0.098;2024-02-26T05:32:56;1.30;89.50
63094;DHT22;49183;51.380;0.098;2024-02-26T05:35:24;1.30;89.70
63094;DHT22;49183;51.380;0.098;2024-02-26T05:37:53;1.20;89.70
63094;DHT22;49183;51.380;0.098;2024-02-26T05:40:21;1.20;89.90
63094;DHT22;49183;51.380;0.098;2024-02-26T05:42:49;1.10;90.00
63094;DHT22;49183;51.380;0.098;2024-02-26T05:45:17;1.10;90.10
63094;DHT22;49183;51.380;0.098;2024-02-26T05:47:45;1.20;90.20
63094;DHT22;49183;51.380;0.098;2024-02-26T05:50:13;1.20;90.40
63094;DHT22;49183;51.380;0.098;2024-02-26T05:52:42;1.20;90.60
63094;DHT22;49183;51.380;0.098;2024-02-26T05:55:10;1.30;90.60
63094;DHT22;49183;51.380;0.098;2024-02-26T05:57:38;1.30;90.60
63094;DHT22;49183;51.380;0.098;2024-02-26T06:00:06;1.30;90.50
63094;DHT22;49183;51.380;0.098;2024-02-26T06:02:40;1.30;90.70
63094;DHT22;49183;51.380;0.098;2024-02-26T06:05:08;1.30;90.70
63094;DHT22;49183;51.380;0.098;2024-02-26T06:07:37;1.30;90.90
63094;DHT22;49183;51.380;0.098;2024-02-26T06:10:07;1.30;90.90
63094;DHT22;49183;51.380;0.098;2024-02-26T06:12:35;1.30;91.20
63094;DHT22;49183;51.380;0.098;2024-02-26T06:15:03;1.40;91.20
63094;DHT22;49183;51.380;0.098;2024-02-26T06:17:32;1.30;91.20
63094;DHT22;49183;51.380;0.098;2024-02-26T06:20:00;1.40;91.20
63094;DHT22;49183;51.380;0.098;2024-02-26T06:22:29;1.30;91.20
63094;DHT22;49183;51.380;0.098;2024-02-26T06:24:57;1.30;91.20
63094;DHT22;49183;51.380;0.098;2024-02-26T06:27:27;1.20;91.20
63094;DHT22;49183;51.380;0.098;2024-02-26T06:29:55;1.20;91.40
63094;DHT22;49183;51.380;0.098;2024-02-26T06:32:24;1.20;91.40
63094;DHT22;49183;51.380;0.098;2024-02-26T06:34:54;1.10;91.50
63094;DHT22;49183;51.380;0.098;2024-02-26T06:37:23;1.10;91.70
63094;DHT22;49183;51.380;0.098;2024-02-26T06:39:51;1.30;91.90
63094;DHT22;49183;51.380;0.098;2024-02-26T06:42:19;1.40;92.00
63094;DHT22;49183;51.380;0.098;2024-02-26T06:44:47;1.50;91.90
63094;DHT22;49183;51.380;0.098;2024-02-26T06:47:14;1.50;91.90
63094;DHT22;49183;51.380;0.098;2024-02-26T06:49:42;1.60;91.80
63094;DHT22;49183;51.380;0.098;2024-02-26T06:52:11;1.70;91.60
63094;DHT22;49183;51.380;0.098;2024-02-26T06:54:40;1.70;91.60
63094;DHT22;49183;51.380;0.098;2024-02-26T06:57:09;1.70;91.60
63094;DHT22;49183;51.380;0.098;2024-02-26T06:59:36;1.60;91.60
63094;DHT22;49183;51.380;0.098;2024-02-26T07:02:05;1.70;91.60
63094;DHT22;49183;51.380;0.098;2024-02-26T07:04:33;1.70;91.70
63094;DHT22;49183;51.380;0.098;2024-02-26T07:07:02;1.60;91.80
63094;DHT22;49183;51.380;0.098;2024-02-26T07:09:31;1.70;91.90
63094;DHT22;49183;51.380;0.098;2024-02-26T07:11:59;1.70;91.90
63094;DHT22;49183;51.380;0.098;2024-02-26T07:14:28;1.70;92.10
63094;DHT22;49183;51.380;0.098;2024-02-26T07:16:56;1.80;92.20
63094;DHT22;49183;51.380;0.098;2024-02-26T07:19:24;1.80;92.20
63094;DHT22;49183;51.380;0.098;2024-02-26T07:21:52;1.80;92.30
63094;DHT22;49183;51.380;0.098;2024-02-26T07:24:21;2.00;92.40
63094;DHT22;49183;51.380;0.098;2024-02-26T07:26:49;2.10;92.30
63094;DHT22;49183;51.380;0.098;2024-02-26T07:29:17;2.30;92.30
63094;DHT22;49183;51.380;0.098;2024-02-26T07:31:45;2.40;92.20
63094;DHT22;49183;51.380;0.098;2024-02-26T07:34:13;2.50;92.10
63094;DHT22;49183;51.380;0.098;2024-02-26T07:36:41;2.60;92.00
63094;DHT22;49183;51.380;0.098;2024-02-26T07:39:09;2.60;91.90
63094;DHT22;49183;51.380;0.098;2024-02-26T07:41:37;2.80;91.70
63094;DHT22;49183;51.380;0.098;2024-02-26T07:44:06;2.80;91.60
63094;DHT22;49183;51.380;0.098;2024-02-26T07:46:36;2.80;91.40
63094;DHT22;49183;51.380;0.098;2024-02-26T07:49:04;2.90;91.40
63094;DHT22;49183;51.380;0.098;2024-02-26T07:51:33;2.90;91.30
63094;DHT22;49183;51.380;0.098;2024-02-26T07:54:02;2.90;91.10
63094;DHT22;49183;51.380;0.098;2024-02-26T07:56:32;3.00;91.10
63094;DHT22;49183;51.380;0.098;2024-02-26T07:59:00;3.10;91.00
63094;DHT22;49183;51.380;0.098;2024-02-26T08:01:28;3.10;90.80
63094;DHT22;49183;51.380;0.098;2024-02-26T08:03:56;3.10;90.60
63094;DHT22;49183;51.380;0.098;2024-02-26T08:06:24;3.10;90.70
63094;DHT22;49183;51.380;0.098;2024-02-26T08:08:53;3.10;90.60
63094;DHT22;49183;51.380;0.098;2024-02-26T08:11:24;3.20;90.60
63094;DHT22;49183;51.380;0.098;2024-02-26T08:13:54;3.20;90.50
63094;DHT22;49183;51.380;0.098;2024-02-26T08:16:25;3.30;90.50
63094;DHT22;49183;51.380;0.098;2024-02-26T08:18:55;3.40;90.30
63094;DHT22;49183;51.380;0.098;2024-02-26T08:21:24;3.40;90.10
63094;DHT22;49183;51.380;0.098;2024-02-26T08:23:54;3.50;89.90
63094;DHT22;49183;51.380;0.098;2024-02-26T08:26:24;3.50;89.70
63094;DHT22;49183;51.380;0.098;2024-02-26T08:28:54;3.50;89.60
63094;DHT22;49183;51.380;0.098;2024-02-26T08:31:26;3.50;89.50
63094;DHT22;49183;51.380;0.098;2024-02-26T08:33:59;3.60;89.40
63094;DHT22;49183;51.380;0.098;2024-02-26T08:36:33;3.70;89.40
63094;DHT22;49183;51.380;0.098;2024-02-26T08:39:04;3.70;89.30
63094;DHT22;49183;51.380;0.098;2024-02-26T08:41:36;3.80;89.20
63094;DHT22;49183;51.380;0.098;2024-02-26T08:44:07;3.80;89.00
63094;DHT22;49183;51.380;0.098;2024-02-26T08:46:40;3.80;88.80
63094;DHT22;49183;51.380;0.098;2024-02-26T08:49:11;3.80;88.70
63094;DHT22;49183;51.380;0.098;2024-02-26T08:51:42;3.90;88.40
63094;DHT22;49183;51.380;0.098;2024-02-26T08:54:14;3.80;88.30
63094;DHT22;49183;51.380;0.098;2024-02-26T08:56:44;3.80;88.30
63094;DHT22;49183;51.380;0.098;2024-02-26T08:59:16;3.80;88.20
63094;DHT22;49183;51.380;0.098;2024-02-26T09:01:51;3.90;88.20
63094;DHT22;49183;51.380;0.098;2024-02-26T09:04:23;3.90;88.20
63094;DHT22;49183;51.380;0.098;2024-02-26T09:06:54;4.00;88.00
63094;DHT22;49183;51.380;0.098;2024-02-26T09:09:25;4.00;87.70
63094;DHT22;49183;51.380;0.098;2024-02-26T09:11:57;4.10;87.50
63094;DHT22;49183;51.380;0.098;2024-02-26T09:14:29;4.10;87.50
63094;DHT22;49183;51.380;0.098;2024-02-26T09:17:02;4.20;87.40
63094;DHT22;49183;51.380;0.098;2024-02-26T09:19:33;4.30;87.40
63094;DHT22;49183;51.380;0.098;2024-02-26T09:22:07;4.40;87.30
63094;DHT22;49183;51.380;0.098;2024-02-26T09:24:44;4.50;87.10
63094;DHT22;49183;51.380;0.098;2024-02-26T09:27:19;4.70;87.10
63094;DHT22;49183;51.380;0.098;2024-02-26T09:29:52;4.90;86.80
63094;DHT22;49183;51.380;0.098;2024-02-26T09:32:25;5.00;86.60
63094;DHT22;49183;51.380;0.098;2024-02-26T09:35:00;5.20;86.10
63094;DHT22;49183;51.380;0.098;2024-02-26T09:37:34;5.30;85.80
63094;DHT22;49183;51.380;0.098;2024-02-26T09:40:08;5.60;85.40
63094;DHT22;49183;51.380;0.098;2024-02-26T09:42:45;5.80;84.80
63094;DHT22;49183;51.380;0.098;2024-02-26T09:45:20;6.00;84.60
63094;DHT22;49183;51.380;0.098;2024-02-26T09:47:55;6.30;84.00
63094;DHT22;49183;51.380;0.098;2024-02-26T09:50:31;6.50;84.00
63094;DHT22;49183;51.380;0.098;2024-02-26T09:53:12;6.70;83.40
63094;DHT22;49183;51.380;0.098;2024-02-26T09:55:49;6.90;83.20
63094;DHT22;49183;51.380;0.098;2024-02-26T09:58:27;7.10;82.00
63094;DHT22;49183;51.380;0.098;2024-02-26T10:01:02;7.10;81.00
63094;DHT22;49183;51.380;0.098;2024-02-26T10:03:38;7.10;80.30
63094;DHT22;49183;51.380;0.098;2024-02-26T10:06:12;7.10;80.30
63094;DHT22;49183;51.380;0.098;2024-02-26T10:08:44;7.10;80.30
63094;DHT22;49183;51.380;0.098;2024-02-26T10:11:17;7.10;79.90
63094;DHT22;49183;51.380;0.098;2024-02-26T10:13:49;7.00;79.90
63094;DHT22;49183;51.380;0.098;2024-02-26T10:16:21;6.80;79.10
63094;DHT22;49183;51.380;0.098;2024-02-26T10:18:55;6.80;79.90
63094;DHT22;49183;51.380;0.098;2024-02-26T10:21:29;6.70;80.20
63094;DHT22;49183;51.380;0.098;2024-02-26T10:24:00;6.60;80.50
63094;DHT22;49183;51.380;0.098;2024-02-26T10:26:33;6.40;80.90
63094;DHT22;49183;51.380;0.098;2024-02-26T10:29:08;6.30;81.20
63094;DHT22;49183;51.380;0.098;2024-02-26T10:31:44;6.30;81.80
63094;DHT22;49183;51.380;0.098;2024-02-26T10:34:15;6.30;81.80
63094;DHT22;49183;51.380;0.098;2024-02-26T10:36:47;6.30;82.00
63094;DHT22;49183;51.380;0.098;2024-02-26T10:39:22;6.30;82.20
63094;DHT22;49183;51.380;0.098;2024-02-26T10:41:57;6.40;81.90
63094;DHT22;49183;51.380;0.098;2024-02-26T10:44:28;6.40;81.80
63094;DHT22;49183;51.380;0.098;2024-02-26T10:47:07;6.40;81.90
63094;DHT22;49183;51.380;0.098;2024-02-26T10:49:44;6.30;81.80
63094;DHT22;49183;51.380;0.098;2024-02-26T10:52:20;6.40;81.70
63094;DHT22;49183;51.380;0.098;2024-02-26T10:54:57;6.40;81.60
63094;DHT22;49183;51.380;0.098;2024-02-26T10:57:39;6.40;81.40
63094;DHT22;49183;51.380;0.098;2024-02-26T11:00:14;6.40;81.40
63094;DHT22;49183;51.380;0.098;2024-02-26T11:02:48;6.40;80.90
63094;DHT22;49183;51.380;0.098;2024-02-26T11:05:20;6.40;81.20
63094;DHT22;49183;51.380;0.098;2024-02-26T11:07:52;6.50;81.00
63094;DHT22;49183;51.380;0.098;2024-02-26T11:10:24;6.40;80.90
63094;DHT22;49183;51.380;0.098;2024-02-26T11:12:59;6.30;80.60
63094;DHT22;49183;51.380;0.098;2024-02-26T11:15:35;6.30;80.80
63094;DHT22;49183;51.380;0.098;2024-02-26T11:18:08;6.40;81.30
63094;DHT22;49183;51.380;0.098;2024-02-26T11:20:41;6.40;80.70
63094;DHT22;49183;51.380;0.098;2024-02-26T11:23:13;6.40;80.60
63094;DHT22;49183;51.380;0.098;2024-02-26T11:25:45;6.40;80.20
63094;DHT22;49183;51.380;0.098;2024-02-26T11:28:19;6.40;80.10
63094;DHT22;49183;51.380;0.098;2024-02-26T11:30:53;6.50;80.30
63094;DHT22;49183;51.380;0.098;2024-02-26T11:33:26;6.50;80.00
63094;DHT22;49183;51.380;0.098;2024-02-26T11:35:58;6.60;80.20
63094;DHT22;49183;51.380;0.098;2024-02-26T11:38:31;6.70;79.00
63094;DHT22;49183;51.380;0.098;2024-02-26T11:41:05;6.70;79.00
63094;DHT22;49183;51.380;0.098;2024-02-26T11:43:57;6.80;79.10
63094;DHT22;49183;51.380;0.098;2024-02-26T11:46:31;6.90;77.90
63094;DHT22;49183;51.380;0.098;2024-02-26T11:52:09;6.90;77.00
63094;DHT22;49183;51.380;0.098;2024-02-26T11:54:47;7.00;76.90
63094;DHT22;49183;51.380;0.098;2024-02-26T12:00:14;7.30;76.30
63094;DHT22;49183;51.380;0.098;2024-02-26T12:02:56;7.40;75.20
63094;DHT22;49183;51.380;0.098;2024-02-26T12:05:33;7.30;73.70
63094;DHT22;49183;51.380;0.098;2024-02-26T12:08:15;7.40;73.90
63094;DHT22;49183;51.380;0.098;2024-02-26T12:10:53;7.40;73.00
63094;DHT22;49183;51.380;0.098;2024-02-26T12:13:29;7.40;72.50
63094;DHT22;49183;51.380;0.098;2024-02-26T12:16:03;7.40;72.60
63094;DHT22;49183;51.380;0.098;2024-02-26T12:18:46;7.40;72.90
63094;DHT22;49183;51.380;0.098;2024-02-26T12:21:25;7.50;72.40
63094;DHT22;49183;51.380;0.098;2024-02-26T12:24:07;7.60;71.90
63094;DHT22;49183;51.380;0.098;2024-02-26T12:26:42;7.70;71.40
63094;DHT22;49183;51.380;0.098;2024-02-26T12:29:13;7.70;71.60
63094;DHT22;49183;51.380;0.098;2024-02-26T12:31:46;7.60;71.80
63094;DHT22;49183;51.380;0.098;2024-02-26T12:34:27;7.50;72.00
63094;DHT22;49183;51.380;0.098;2024-02-26T12:37:08;7.50;72.30
63094;DHT22;49183;51.380;0.098;2024-02-26T12:39:45;7.60;71.50
63094;DHT22;49183;51.380;0.098;2024-02-26T12:42:29;7.70;71.00
63094;DHT22;49183;51.380;0.098;2024-02-26T12:45:09;7.80;71.70
63094;DHT22;49183;51.380;0.098;2024-02-26T12:47:47;7.80;71.10
63094;DHT22;49183;51.380;0.098;2024-02-26T12:50:20;7.80;71.20
63094;DHT22;49183;51.380;0.098;2024-02-26T12:52:56;7.70;71.00
63094;DHT22;49183;51.380;0.098;2024-02-26T12:55:32;7.60;70.70
63094;DHT22;49183;51.380;0.098;2024-02-26T12:58:16;7.50;70.90
63094;DHT22;49183;51.380;0.098;2024-02-26T13:00:54;7.70;70.40
63094;DHT22;49183;51.380;0.098;2024-02-26T13:03:28;7.80;69.30
63094;DHT22;49183;51.380;0.098;2024-02-26T13:06:07;7.80;69.70
63094;DHT22;49183;51.380;0.098;2024-02-26T13:08:57;7.80;69.50
63094;DHT22;49183;51.380;0.098;2024-02-26T13:11:41;7.80;69.70
63094;DHT22;49183;51.380;0.098;2024-02-26T13:14:19;7.90;69.90
63094;DHT22;49183;51.380;0.098;2024-02-26T13:16:58;8.00;69.90
63094;DHT22;49183;51.380;0.098;2024-02-26T13:19:33;8.10;69.10
63094;DHT22;49183;51.380;0.098;2024-02-26T13:22:07;8.10;68.80
63094;DHT22;49183;51.380;0.098;2024-02-26T13:24:40;8.10;68.10
63094;DHT22;49183;51.380;0.098;2024-02-26T13:27:12;8.10;68.30
63094;DHT22;49183;51.380;0.098;2024-02-26T13:32:35;8.00;68.60
63094;DHT22;49183;51.380;0.098;2024-02-26T13:35:10;7.90;68.20
63094;DHT22;49183;51.380;0.098;2024-02-26T13:37:42;7.90;68.30
63094;DHT22;49183;51.380;0.098;2024-02-26T13:40:16;7.90;69.30
63094;DHT22;49183;51.380;0.098;2024-02-26T13:42:51;7.90;69.10
63094;DHT22;49183;51.380;0.098;2024-02-26T13:45:25;7.90;69.30
63094;DHT22;49183;51.380;0.098;2024-02-26T13:48:06;7.90;69.90
63094;DHT22;49183;51.380;0.098;2024-02-26T13:50:38;7.90;70.30
63094;DHT22;49183;51.380;0.098;2024-02-26T13:53:12;7.90;70.20
63094;DHT22;49183;51.380;0.098;2024-02-26T13:55:44;7.90;70.10
63094;DHT22;49183;51.380;0.098;2024-02-26T13:58:19;7.80;70.00
63094;DHT22;49183;51.380;0.098;2024-02-26T14:00:57;7.80;70.10
63094;DHT22;49183;51.380;0.098;2024-02-26T14:03:32;7.90;69.50
63094;DHT22;49183;51.380;0.098;2024-02-26T14:06:05;7.90;68.50
63094;DHT22;49183;51.380;0.098;2024-02-26T14:08:44;7.90;68.10
63094;DHT22;49183;51.380;0.098;2024-02-26T14:11:21;7.90;68.90
63094;DHT22;49183;51.380;0.098;2024-02-26T14:13:54;8.00;69.10
63094;DHT22;49183;51.380;0.098;2024-02-26T14:16:26;8.00;69.20
63094;DHT22;49183;51.380;0.098;2024-02-26T14:19:00;8.00;69.20
63094;DHT22;49183;51.380;0.098;2024-02-26T14:21:33;7.90;69.70
63094;DHT22;49183;51.380;0.098;2024-02-26T14:24:06;7.80;69.70
63094;DHT22;49183;51.380;0.098;2024-02-26T14:26:40;7.70;69.90
63094;DHT22;49183;51.380;0.098;2024-02-26T14:29:17;7.70;70.30
63094;DHT22;49183;51.380;0.098;2024-02-26T14:31:48;7.60;70.70
63094;DHT22;49183;51.380;0.098;2024-02-26T14:34:22;7.50;70.40
63094;DHT22;49183;51.380;0.098;2024-02-26T14:37:01;7.40;70.80
63094;DHT22;49183;51.380;0.098;2024-02-26T14:39:34;7.40;71.00
63094;DHT22;49183;51.380;0.098;2024-02-26T14:42:07;7.50;70.70
63094;DHT22;49183;51.380;0.098;2024-02-26T14:44:40;7.50;70.20
63094;DHT22;49183;51.380;0.098;2024-02-26T14:47:16;7.50;70.20
63094;DHT22;49183;51.380;0.098;2024-02-26T14:49:47;7.60;70.50
63094;DHT22;49183;51.380;0.098;2024-02-26T14:52:19;7.60;70.70
63094;DHT22;49183;51.380;0.098;2024-02-26T14:54:58;7.60;70.50
63094;DHT22;49183;51.380;0.098;2024-02-26T14:57:41;7.60;70.60
63094;DHT22;49183;51.380;0.098;2024-02-26T15:00:15;7.60;70.40
63094;DHT22;49183;51.380;0.098;2024-02-26T15:02:52;7.60;70.40
63094;DHT22;49183;51.380;0.098;2024-02-26T15:05:40;7.70;70.00
63094;DHT22;49183;51.380;0.098;2024-02-26T15:08:34;7.80;69.40
63094;DHT22;49183;51.380;0.098;2024-02-26T15:11:18;7.80;69.30
63094;DHT22;49183;51.380;0.098;2024-02-26T15:14:03;7.80;67.70
63094;DHT22;49183;51.380;0.098;2024-02-26T15:16:53;7.90;66.30
63094;DHT22;49183;51.380;0.098;2024-02-26T15:19:38;8.10;66.30
63094;DHT22;49183;51.380;0.098;2024-02-26T15:22:15;8.30;66.00
63094;DHT22;49183;51.380;0.098;2024-02-26T15:24:47;8.30;64.80
63094;DHT22;49183;51.380;0.098;2024-02-26T15:27:17;8.30;64.50
63094;DHT22;49183;51.380;0.098;2024-02-26T15:29:47;8.20;65.20
63094;DHT22;49183;51.380;0.098;2024-02-26T15:32:17;8.20;65.70
63094;DHT22;49183;51.380;0.098;2024-02-26T15:34:47;8.20;66.30
63094;DHT22;49183;51.380;0.098;2024-02-26T15:37:17;8.10;66.10
63094;DHT22;49183;51.380;0.098;2024-02-26T15:39:48;8.20;67.00
63094;DHT22;49183;51.380;0.098;2024-02-26T15:42:18;8.20;67.30
63094;DHT22;49183;51.380;0.098;2024-02-26T15:44:50;8.10;67.40
63094;DHT22;49183;51.380;0.098;2024-02-26T15:47:29;8.10;68.00
63094;DHT22;49183;51.380;0.098;2024-02-26T15:50:05;8.10;68.70
63094;DHT22;49183;51.380;0.098;2024-02-26T15:52:36;8.10;69.00
63094;DHT22;49183;51.380;0.098;2024-02-26T15:55:07;8.00;69.30
63094;DHT22;49183;51.380;0.098;2024-02-26T15:57:45;7.90;69.70
63094;DHT22;49183;51.380;0.098;2024-02-26T16:00:16;7.80;70.40
63094;DHT22;49183;51.380;0.098;2024-02-26T16:02:47;7.60;71.00
63094;DHT22;49183;51.380;0.098;2024-02-26T16:05:23;7.40;71.80
63094;DHT22;49183;51.380;0.098;2024-02-26T16:08:00;7.30;72.30
63094;DHT22;49183;51.380;0.098;2024-02-26T16:10:34;7.20;72.70
63094;DHT22;49183;51.380;0.098;2024-02-26T16:13:10;7.10;73.00
63094;DHT22;49183;51.380;0.098;2024-02-26T16:15:50;7.10;73.30
63094;DHT22;49183;51.380;0.098;2024-02-26T16:18:25;7.10;73.60
63094;DHT22;49183;51.380;0.098;2024-02-26T16:20:58;7.10;73.80
63094;DHT22;49183;51.380;0.098;2024-02-26T16:23:31;7.20;74.00
63094;DHT22;49183;51.380;0.098;2024-02-26T16:26:04;7.10;74.00
63094;DHT22;49183;51.380;0.098;2024-02-26T16:28:37;7.10;74.10
63094;DHT22;49183;51.380;0.098;2024-02-26T16:31:09;7.10;74.20
63094;DHT22;49183;51.380;0.098;2024-02-26T16:33:42;7.10;74.40
63094;DHT22;49183;51.380;0.098;2024-02-26T16:36:16;7.10;74.40
63094;DHT22;49183;51.380;0.098;2024-02-26T16:38:48;7.10;74.50
63094;DHT22;49183;51.380;0.098;2024-02-26T16:41:19;7.10;74.50
63094;DHT22;49183;51.380;0.098;2024-02-26T16:43:47;7.20;74.40
63094;DHT22;49183;51.380;0.098;2024-02-26T16:46:16;7.20;74.50
63094;DHT22;49183;51.380;0.098;2024-02-26T16:48:46;7.20;74.40
63094;DHT22;49183;51.380;0.098;2024-02-26T16:51:19;7.10;74.50
63094;DHT22;49183;51.380;0.098;2024-02-26T16:53:48;7.00;74.90
63094;DHT22;49183;51.380;0.098;2024-02-26T16:56:16;6.90;75.20